createdAt,value
2024-05-09T00:00:01.302Z,18.1
2024-05-09T00:05:01.439Z,18.1
2024-05-09T00:10:01.283Z,18.1
2024-05-09T00:15:01.316Z,18.3
2024-05-09T00:20:01.432Z,18.6
2024-05-09T00:25:01.314Z,18.8
2024-05-09T00:30:01.320Z,18.8
2024-05-09T00:35:01.340Z,19
2024-05-09T00:40:01.294Z,20
2024-05-09T00:45:01.325Z,20
2024-05-09T00:50:01.469Z,20
2024-05-09T00:55:01.445Z,20.2
2024-05-09T01:00:01.304Z,20.2
2024-05-09T01:05:01.396Z,20.2
2024-05-09T01:10:01.329Z,20.8
2024-05-09T01:15:01.300Z,21.4
2024-05-09T01:20:01.343Z,21.6
2024-05-09T01:25:01.326Z,21.7
2024-05-09T01:30:01.310Z,21.7
2024-05-09T01:35:01.385Z,21.8
2024-05-09T01:40:01.333Z,21.8
2024-05-09T01:45:01.318Z,22
2024-05-09T01:50:01.493Z,22
2024-05-09T01:55:03.497Z,21.8
2024-05-09T02:00:01.333Z,21.8
2024-05-09T02:10:01.356Z,21.8
2024-05-09T02:15:01.325Z,21.6
2024-05-09T02:20:01.389Z,21.5
2024-05-09T02:25:01.334Z,21.5
2024-05-09T02:30:01.383Z,21.5
2024-05-09T02:35:01.384Z,21.5
2024-05-09T02:40:01.336Z,21.9
2024-05-09T02:45:01.354Z,21.9
2024-05-09T02:50:01.389Z,21.9
2024-05-09T02:55:01.390Z,21.9
2024-05-09T03:00:01.339Z,21.4
2024-05-09T03:05:01.521Z,21.1
2024-05-09T03:10:01.370Z,21.1
2024-05-09T03:15:01.349Z,20.9
2024-05-09T03:20:01.388Z,20.9
2024-05-09T03:25:01.353Z,20.9
2024-05-09T03:30:01.386Z,20.9
2024-05-09T03:35:01.698Z,21.2
2024-05-09T03:40:01.411Z,22
2024-05-09T03:50:02.782Z,23.1
2024-05-09T03:55:02.734Z,23.6
2024-05-09T04:00:02.944Z,23.8
2024-05-09T04:05:02.487Z,25.6
2024-05-09T04:10:03.970Z,26.1
2024-05-09T04:15:02.369Z,26.1
2024-05-09T04:20:02.401Z,26.1
2024-05-09T04:25:02.676Z,25.9
2024-05-09T04:30:02.371Z,25.6
2024-05-09T04:35:02.448Z,25.6
2024-05-09T04:40:03.069Z,25.9
2024-05-09T04:45:02.375Z,25.9
2024-05-09T04:50:02.562Z,28.6
2024-05-09T04:55:02.641Z,30.7
2024-05-09T05:00:03.047Z,33.7
2024-05-09T05:05:02.486Z,34.1
2024-05-09T05:10:04.464Z,35.4
2024-05-09T05:15:02.406Z,36.5
2024-05-09T05:20:02.597Z,38.2
2024-05-09T05:25:02.754Z,38.2
2024-05-09T05:30:02.369Z,38.2
2024-05-09T05:35:02.402Z,37
2024-05-09T05:40:03.234Z,36.5
2024-05-09T05:45:02.429Z,35.4
2024-05-09T05:50:02.954Z,35.3
2024-05-09T05:55:02.663Z,35
2024-05-09T06:00:02.988Z,34.1
2024-05-09T06:05:02.475Z,34.1
2024-05-09T06:10:03.979Z,33.6
2024-05-09T06:15:02.406Z,33.6
2024-05-09T06:20:02.506Z,31.3
2024-05-09T06:25:02.629Z,31.3
2024-05-09T06:30:02.429Z,30
2024-05-09T06:35:02.497Z,32.5
2024-05-09T06:40:03.132Z,32.5
2024-05-09T06:45:02.432Z,30
2024-05-09T06:50:02.825Z,29.7
2024-05-09T06:55:02.731Z,29.7
2024-05-09T07:00:02.424Z,29.1
2024-05-09T07:05:02.577Z,28
2024-05-09T07:10:03.059Z,24.6
2024-05-09T07:15:02.435Z,21.1
2024-05-09T07:20:02.480Z,18.8
2024-05-09T07:25:02.800Z,17
2024-05-09T07:30:03.972Z,16.5
2024-05-09T07:35:02.448Z,15.8
2024-05-09T07:40:05.764Z,15.8
2024-05-09T07:45:14.656Z,15.8
2024-05-09T07:51:21.543Z,14.9
2024-05-09T07:55:03.214Z,13.2
2024-05-09T08:00:02.516Z,11.7
2024-05-09T08:05:02.479Z,11.6
2024-05-09T08:10:02.802Z,10.7
2024-05-09T08:15:02.464Z,10.5
2024-05-09T08:20:05.026Z,10.1
2024-05-09T08:25:03.097Z,9.9
2024-05-09T08:30:02.707Z,9.6
2024-05-09T08:35:02.490Z,9.4
2024-05-09T08:40:03.211Z,9.3
2024-05-09T08:45:02.486Z,9.2
2024-05-09T08:50:02.576Z,9
2024-05-09T08:55:02.729Z,9
2024-05-09T09:00:02.751Z,8.9
2024-05-09T09:05:02.561Z,8.9
2024-05-09T09:10:03.204Z,8.9
2024-05-09T09:15:02.457Z,8.9
2024-05-09T09:20:02.628Z,8.8
2024-05-09T09:25:02.817Z,8.8
2024-05-09T09:30:02.894Z,8.8
2024-05-09T09:35:02.516Z,8.8
2024-05-09T09:40:02.666Z,8.8
2024-05-09T09:45:04.774Z,8.7
2024-05-09T09:50:03.083Z,8.7
2024-05-09T09:55:02.759Z,8.7
2024-05-09T10:00:05.487Z,8.7
2024-05-09T10:05:02.614Z,8.4
2024-05-09T10:10:22.820Z,8.4
2024-05-09T10:20:03.176Z,8.4
2024-05-09T10:25:04.386Z,8.6
2024-05-09T10:30:05.211Z,8.4
2024-05-09T10:35:02.538Z,8.4
2024-05-09T10:40:05.419Z,8.4
2024-05-09T10:45:02.660Z,8.4
2024-05-09T10:50:02.565Z,8.4
2024-05-09T10:55:04.896Z,8.2
2024-05-09T11:00:02.568Z,8.2
2024-05-09T11:05:02.716Z,8.2
2024-05-09T11:10:02.808Z,8.2
2024-05-09T11:15:02.536Z,8.2
2024-05-09T11:20:04.601Z,8.2
2024-05-09T11:25:02.737Z,8.2
2024-05-09T11:30:03.205Z,8.2
2024-05-09T11:35:02.546Z,8.1
2024-05-09T11:40:03.442Z,8
2024-05-09T11:45:02.589Z,7.9
2024-05-09T11:50:03.326Z,7.8
2024-05-09T11:55:02.815Z,7.8
2024-05-09T12:00:03.166Z,7.7
2024-05-09T12:05:02.601Z,7.7
2024-05-09T12:10:03.433Z,7.7
2024-05-09T12:15:02.535Z,7.7
2024-05-09T12:20:03.252Z,7.7
2024-05-09T12:25:02.723Z,7.7
2024-05-09T12:30:03.335Z,7.7
2024-05-09T12:35:02.641Z,7.7
2024-05-09T12:40:03.708Z,7.7
2024-05-09T12:45:02.551Z,7.6
2024-05-09T12:50:03.824Z,7.5
2024-05-09T12:55:02.680Z,7.5
2024-05-09T13:00:03.040Z,7.5
2024-05-09T13:05:02.891Z,7.5
2024-05-09T13:10:03.060Z,7.6
2024-05-09T13:15:02.536Z,7.6
2024-05-09T13:20:03.365Z,7.7
2024-05-09T13:25:03.495Z,7.7
2024-05-09T13:30:02.961Z,7.6
2024-05-09T13:35:02.607Z,7.6
2024-05-09T13:40:03.365Z,7.6
2024-05-09T13:45:02.572Z,7.6
2024-05-09T13:50:02.785Z,7.6
2024-05-09T13:55:03.196Z,7.6
2024-05-09T14:00:03.650Z,7.6
2024-05-09T14:05:02.760Z,7.6
2024-05-09T14:10:03.166Z,7.6
2024-05-09T14:15:02.568Z,7.6
2024-05-09T14:20:03.042Z,7.6
2024-05-09T14:25:02.771Z,7.6
2024-05-09T14:30:04.111Z,7.8
2024-05-09T14:35:02.602Z,7.8
2024-05-09T14:40:02.909Z,7.9
2024-05-09T14:45:02.585Z,7.9
2024-05-09T14:50:02.971Z,7.9
2024-05-09T14:55:02.731Z,8
2024-05-09T15:00:03.760Z,8.1
2024-05-09T15:05:02.767Z,8.1
2024-05-09T15:10:03.585Z,8.1
2024-05-09T15:15:02.603Z,8.1
2024-05-09T15:20:03.503Z,8.1
2024-05-09T15:25:02.719Z,8.1
2024-05-09T15:30:02.766Z,8.1
2024-05-09T15:35:02.583Z,8.1
2024-05-09T15:40:04.121Z,8.1
2024-05-09T15:45:02.627Z,8.1
2024-05-09T15:50:02.779Z,8.1
2024-05-09T15:55:02.925Z,8
2024-05-09T16:00:02.703Z,8.1
2024-05-09T16:05:02.764Z,8.1
2024-05-09T16:10:04.084Z,8
2024-05-09T16:15:02.612Z,8.1
2024-05-09T16:20:02.862Z,8.1
2024-05-09T16:25:02.740Z,8.1
2024-05-09T16:30:03.044Z,8.1
2024-05-09T16:35:02.713Z,8
2024-05-09T16:40:03.224Z,8
2024-05-09T16:45:02.644Z,7.8
2024-05-09T16:50:03.053Z,7.7
2024-05-09T16:55:02.892Z,7.7
2024-05-09T17:00:03.228Z,7.7
2024-05-09T17:05:02.831Z,7.7
2024-05-09T17:10:03.049Z,7.8
2024-05-09T17:15:02.755Z,7.9
2024-05-09T17:20:03.699Z,7.9
2024-05-09T17:25:02.874Z,7.9
2024-05-09T17:30:03.376Z,8.1
2024-05-09T17:35:02.952Z,8.2
2024-05-09T17:40:05.280Z,8.2
2024-05-09T17:45:02.646Z,8.2
2024-05-09T17:50:02.738Z,8.2
2024-05-09T17:55:02.794Z,8.3
2024-05-09T18:00:04.012Z,8.3
2024-05-09T18:05:02.993Z,8.3
2024-05-09T18:10:02.744Z,8.3
2024-05-09T18:15:02.689Z,8.3
2024-05-09T18:20:02.939Z,8.4
2024-05-09T18:25:02.720Z,8.4
2024-05-09T18:30:03.139Z,8.5
2024-05-09T18:35:02.750Z,8.6
2024-05-09T18:40:03.341Z,8.7
2024-05-09T18:45:02.722Z,8.7
2024-05-09T18:50:02.956Z,8.7
2024-05-09T18:55:02.694Z,8.7
2024-05-09T19:00:02.843Z,8.7
2024-05-09T19:05:02.869Z,8.8
2024-05-09T19:10:03.321Z,8.8
2024-05-09T19:15:02.727Z,8.9
2024-05-09T19:20:02.848Z,8.8
2024-05-09T19:25:02.720Z,8.8
2024-05-09T19:30:03.180Z,8.8
2024-05-09T19:35:02.703Z,8.8
2024-05-09T19:40:02.997Z,8.9
2024-05-09T19:45:02.683Z,8.9
2024-05-09T19:50:02.764Z,8.9
2024-05-09T19:55:03.111Z,9
2024-05-09T20:00:03.328Z,9.1
2024-05-09T20:05:02.961Z,9.1
2024-05-09T20:10:05.053Z,9.2
2024-05-09T20:15:02.708Z,9.4
2024-05-09T20:20:03.061Z,9.7
2024-05-09T20:25:02.933Z,10.5
2024-05-09T20:30:03.952Z,10.5
2024-05-09T20:35:02.728Z,10.5
2024-05-09T20:40:02.999Z,10.5
2024-05-09T20:45:02.740Z,10.5
2024-05-09T20:50:03.191Z,10.5
2024-05-09T20:55:02.803Z,10.5
2024-05-09T21:00:03.367Z,10.5
2024-05-09T21:05:02.943Z,10.2
2024-05-09T21:10:03.714Z,10.2
2024-05-09T21:15:02.723Z,10.2
2024-05-09T21:20:02.945Z,10.1
2024-05-09T21:25:02.805Z,10.1
2024-05-09T21:30:03.345Z,10.1
2024-05-09T21:35:02.757Z,10.1
2024-05-09T21:40:03.145Z,10.1
2024-05-09T21:45:02.780Z,10.2
2024-05-09T21:50:02.944Z,10.2
2024-05-09T21:55:02.770Z,10.2
2024-05-09T22:00:03.440Z,10.2
2024-05-09T22:05:02.883Z,10.2
2024-05-09T22:10:03.264Z,10.2
2024-05-09T22:15:02.800Z,10.2
2024-05-09T22:20:04.533Z,10.2
2024-05-09T22:25:02.815Z,10.3
2024-05-09T22:30:02.870Z,10.4
2024-05-09T22:35:02.866Z,10.4
2024-05-09T22:40:03.902Z,10.4
2024-05-09T22:45:02.766Z,10.4
2024-05-09T22:50:02.910Z,10.3
2024-05-09T22:55:02.813Z,10.3
2024-05-09T23:00:03.178Z,10.3
2024-05-09T23:05:02.902Z,10.3
2024-05-09T23:10:04.325Z,10.4
2024-05-09T23:15:02.806Z,10.9
2024-05-09T23:20:03.890Z,11.3
2024-05-09T23:25:02.812Z,11.3
2024-05-09T23:30:03.483Z,11.3
2024-05-09T23:35:02.868Z,11.3
2024-05-09T23:40:05.051Z,11.4
2024-05-09T23:45:02.779Z,11.5
2024-05-09T23:50:05.059Z,11.5
2024-05-09T23:55:02.873Z,11.3
